Time;durP1;ratioP1;P1;durP2;ratioP2;P2;SDS_P1;SDS_P2;PMS_P1;PMS_P2;Temp;Humidity;BMP_temperature;BMP_pressure;BME280_temperature;BME280_humidity;BME280_pressure;Samples;Min_cycle;Max_cycle;Signal;HPM_P1;HPM_P2
2024/01/20 00:00:01;;;;;;;36.25;17.35;;;0.90;87.40;;;;;;9175644;19;20065;-67
2024/01/20 00:03:08;;;;;;;33.80;16.92;;;0.80;87.30;;;;;;9175725;19;20360;-68
2024/01/20 00:06:14;;;;;;;39.38;18.45;;;0.80;87.30;;;;;;9176182;19;20019;-68
2024/01/20 00:09:24;;;;;;;37.58;18.50;;;0.80;87.40;;;;;;9172777;19;20015;-70
2024/01/20 00:12:44;;;;;;;35.15;18.63;;;0.70;87.40;;;;;;9176255;19;20014;-70
2024/01/20 00:15:52;;;;;;;44.28;18.90;;;0.70;87.40;;;;;;9176307;19;20010;-70
2024/01/20 00:18:57;;;;;;;41.75;18.88;;;0.70;87.30;;;;;;9176135;19;20160;-70
2024/01/20 00:22:06;;;;;;;58.72;20.63;;;0.70;87.50;;;;;;9174200;19;20025;-70
2024/01/20 00:25:14;;;;;;;40.55;18.85;;;0.70;87.80;;;;;;9176071;19;20068;-70
2024/01/20 00:28:23;;;;;;;38.78;18.58;;;0.70;87.80;;;;;;9174523;19;20025;-70
2024/01/20 00:31:29;;;;;;;47.90;19.95;;;0.60;87.30;;;;;;9174383;19;20014;-70
2024/01/20 00:34:36;;;;;;;37.35;19.75;;;0.60;87.60;;;;;;9176125;19;20014;-70
2024/01/20 00:38:02;;;;;;;42.55;19.98;;;0.60;87.50;;;;;;9176509;19;20139;-70
2024/01/20 00:41:13;;;;;;;40.78;20.17;;;0.60;87.50;;;;;;9175892;19;20029;-70
2024/01/20 00:44:19;;;;;;;46.22;20.83;;;0.60;87.40;;;;;;9175230;19;20039;-70
2024/01/20 00:47:27;;;;;;;45.42;20.63;;;0.60;87.30;;;;;;9175804;19;20011;-70
2024/01/20 00:50:33;;;;;;;44.42;19.90;;;0.60;87.50;;;;;;9173798;19;20436;-70
2024/01/20 00:53:40;;;;;;;54.15;21.08;;;0.60;87.20;;;;;;9175339;19;20018;-70
2024/01/20 00:56:49;;;;;;;50.05;21.25;;;0.50;87.80;;;;;;9174983;19;20025;-70
2024/01/20 00:59:58;;;;;;;51.97;20.65;;;0.50;87.30;;;;;;9174133;19;20358;-70
2024/01/20 01:03:05;;;;;;;46.38;21.15;;;0.50;87.30;;;;;;9174987;19;20029;-70
2024/01/20 01:06:13;;;;;;;48.53;20.67;;;0.50;87.40;;;;;;9174284;19;20023;-70
2024/01/20 01:09:18;;;;;;;52.97;21.65;;;0.50;87.40;;;;;;9169980;19;20018;-70
2024/01/20 01:12:29;;;;;;;52.17;22.85;;;0.40;87.40;;;;;;9171784;19;20018;-70
2024/01/20 01:15:35;;;;;;;52.40;21.13;;;0.40;87.10;;;;;;9174643;19;20025;-70
2024/01/20 01:18:43;;;;;;;49.13;21.73;;;0.40;86.80;;;;;;9173097;19;20026;-70
2024/01/20 01:21:49;;;;;;;58.65;20.92;;;0.50;87.00;;;;;;9173468;19;20015;-67
2024/01/20 01:24:56;;;;;;;51.45;20.95;;;0.40;87.00;;;;;;9172054;19;20014;-69
2024/01/20 01:28:05;;;;;;;55.17;21.98;;;0.40;86.60;;;;;;9172200;19;20014;-67
2024/01/20 01:31:12;;;;;;;61.72;22.52;;;0.40;87.30;;;;;;9167298;19;20357;-67
2024/01/20 01:34:18;;;;;;;51.65;22.02;;;0.40;87.30;;;;;;9171779;19;20014;-66
2024/01/20 01:37:26;;;;;;;57.92;22.27;;;0.40;86.80;;;;;;9173046;19;20034;-66
2024/01/20 01:40:31;;;;;;;66.68;22.15;;;0.40;87.10;;;;;;9171377;19;20018;-68
2024/01/20 01:43:42;;;;;;;58.67;23.33;;;0.30;87.00;;;;;;9173941;19;20010;-68
2024/01/20 01:46:48;;;;;;;62.20;22.80;;;0.30;87.20;;;;;;9173408;19;20014;-67
2024/01/20 01:49:56;;;;;;;64.43;22.50;;;0.30;87.80;;;;;;9173614;19;20019;-68
2024/01/20 01:53:22;;;;;;;55.95;21.35;;;0.30;87.50;;;;;;9172497;19;20015;-67
2024/01/20 01:56:30;;;;;;;58.13;22.23;;;0.30;87.00;;;;;;9173496;19;20018;-68
2024/01/20 01:59:40;;;;;;;61.70;22.25;;;0.20;87.10;;;;;;9173760;19;20630;-67
2024/01/20 02:02:47;;;;;;;58.83;21.60;;;0.30;87.40;;;;;;9172512;19;20022;-66
2024/01/20 02:05:53;;;;;;;51.55;21.25;;;0.20;86.80;;;;;;9172893;19;20015;-66
2024/01/20 02:09:01;;;;;;;57.47;21.65;;;0.30;87.10;;;;;;9168791;19;20015;-66
2024/01/20 02:12:08;;;;;;;51.90;19.08;;;0.20;87.00;;;;;;9170531;19;20098;-68
2024/01/20 02:15:18;;;;;;;56.80;21.45;;;0.20;86.60;;;;;;9169946;19;20014;-65
2024/01/20 02:18:25;;;;;;;59.63;20.98;;;0.20;86.90;;;;;;9173015;19;20013;-67
2024/01/20 02:21:32;;;;;;;54.35;21.98;;;0.10;86.70;;;;;;9175930;19;20089;-71
2024/01/20 02:24:42;;;;;;;51.95;20.65;;;0.10;86.50;;;;;;9178776;19;20018;-68
2024/01/20 02:27:51;;;;;;;60.90;22.08;;;0.20;86.60;;;;;;9180685;19;20014;-67
2024/01/20 02:30:56;;;;;;;54.75;21.08;;;0.20;87.00;;;;;;9180403;19;20010;-75
2024/01/20 02:34:04;;;;;;;51.30;20.42;;;0.20;87.10;;;;;;9180720;19;20468;-75
2024/01/20 02:37:10;;;;;;;56.30;21.17;;;0.10;87.00;;;;;;9180376;19;20018;-73
2024/01/20 02:40:20;;;;;;;67.53;22.48;;;0.10;86.70;;;;;;9180881;19;20029;-74
2024/01/20 02:43:26;;;;;;;57.17;21.75;;;0.10;86.60;;;;;;9179798;19;20018;-72
2024/01/20 02:46:33;;;;;;;52.80;19.95;;;0.00;87.50;;;;;;9181111;19;20014;-74
2024/01/20 02:49:39;;;;;;;57.28;21.60;;;0.10;86.70;;;;;;9178638;19;20021;-74
2024/01/20 02:52:46;;;;;;;58.75;21.85;;;0.00;86.40;;;;;;9176887;19;20483;-74
2024/01/20 02:55:55;;;;;;;61.38;22.20;;;0.00;86.40;;;;;;9178690;19;20048;-73
2024/01/20 02:59:02;;;;;;;58.00;20.45;;;0.10;86.70;;;;;;9180308;19;20033;-75
2024/01/20 03:02:08;;;;;;;56.85;21.15;;;0.00;86.60;;;;;;9180000;19;20448;-76
2024/01/20 03:05:16;;;;;;;61.83;21.80;;;0.00;86.80;;;;;;9179341;19;20014;-76
2024/01/20 03:08:21;;;;;;;60.80;21.67;;;0.00;87.10;;;;;;9177724;19;20488;-72
2024/01/20 03:11:31;;;;;;;67.95;22.77;;;0.10;87.30;;;;;;9171087;19;20018;-75
2024/01/20 03:14:37;;;;;;;57.10;21.92;;;0.00;86.80;;;;;;9179400;19;20014;-74
2024/01/20 03:17:45;;;;;;;59.58;22.77;;;0.00;87.20;;;;;;9179794;19;20026;-77
2024/01/20 03:20:50;;;;;;;62.92;21.77;;;0.00;87.20;;;;;;9179912;19;20010;-73
2024/01/20 03:23:58;;;;;;;62.50;22.77;;;0.00;87.80;;;;;;9179096;19;20015;-74
2024/01/20 03:27:06;;;;;;;62.83;21.10;;;0.00;87.20;;;;;;9178386;19;20017;-75
2024/01/20 03:30:14;;;;;;;58.70;21.83;;;0.00;87.20;;;;;;9178466;19;20577;-75
2024/01/20 03:33:20;;;;;;;70.93;20.75;;;0.00;86.70;;;;;;9173622;19;20021;-75
2024/01/20 03:36:28;;;;;;;61.60;20.95;;;0.00;86.60;;;;;;9178502;19;20022;-73
2024/01/20 03:39:34;;;;;;;65.95;22.42;;;0.10;87.10;;;;;;9179058;19;20014;-69
2024/01/20 03:42:44;;;;;;;70.45;22.48;;;0.00;86.90;;;;;;9177398;19;20025;-69
2024/01/20 03:45:49;;;;;;;67.07;22.42;;;0.10;88.10;;;;;;9177637;19;20121;-69
2024/01/20 03:48:57;;;;;;;57.40;22.10;;;0.10;86.80;;;;;;9178925;19;20022;-68
2024/01/20 03:52:03;;;;;;;60.33;21.88;;;0.10;86.80;;;;;;9175036;19;20029;-69
2024/01/20 03:55:11;;;;;;;57.03;20.67;;;0.20;86.90;;;;;;9176722;19;20382;-69
2024/01/20 03:58:19;;;;;;;66.22;21.85;;;0.10;87.00;;;;;;9176114;19;20511;-69
2024/01/20 04:01:26;;;;;;;60.60;21.02;;;0.20;86.80;;;;;;9176924;19;20014;-70
2024/01/20 04:04:32;;;;;;;57.22;20.23;;;0.20;86.80;;;;;;9177472;19;20010;-68
2024/01/20 04:07:40;;;;;;;60.95;21.25;;;0.20;86.90;;;;;;9172906;19;20018;-69
2024/01/20 04:10:47;;;;;;;59.80;20.35;;;0.20;86.90;;;;;;9173041;19;20010;-69
2024/01/20 04:13:58;;;;;;;53.47;21.02;;;0.20;86.90;;;;;;9174796;19;20479;-69
2024/01/20 04:17:03;;;;;;;55.40;20.92;;;0.20;86.60;;;;;;9176486;19;20014;-69
2024/01/20 04:20:12;;;;;;;50.33;18.75;;;0.20;87.00;;;;;;9176659;19;20015;-69
2024/01/20 04:23:17;;;;;;;50.00;18.58;;;0.20;87.00;;;;;;9177512;19;20491;-70
2024/01/20 04:26:25;;;;;;;46.50;18.67;;;0.20;86.90;;;;;;9176858;19;20014;-70
2024/01/20 04:29:33;;;;;;;52.60;20.10;;;0.20;87.00;;;;;;9173939;19;20014;-70
2024/01/20 04:32:41;;;;;;;53.10;18.75;;;0.20;87.30;;;;;;9173386;19;20488;-71
2024/01/20 04:35:46;;;;;;;57.58;20.10;;;0.20;87.00;;;;;;9176504;19;20460;-68
2024/01/20 04:38:54;;;;;;;50.08;19.15;;;0.20;87.20;;;;;;9176777;19;20011;-68
2024/01/20 04:41:59;;;;;;;51.13;18.85;;;0.10;86.80;;;;;;9174280;19;20022;-69
2024/01/20 04:45:13;;;;;;;52.55;17.50;;;0.10;86.70;;;;;;9175381;19;20035;-69
2024/01/20 04:48:22;;;;;;;53.63;18.45;;;0.00;86.80;;;;;;9175925;19;20488;-69
2024/01/20 04:51:29;;;;;;;45.55;18.08;;;0.10;87.00;;;;;;9175746;19;20018;-68
2024/01/20 04:54:35;;;;;;;46.80;17.73;;;0.10;86.80;;;;;;9173197;19;20119;-68
2024/01/20 04:57:43;;;;;;;46.60;17.27;;;0.10;86.80;;;;;;9175360;19;20019;-67
2024/01/20 05:00:51;;;;;;;54.03;18.92;;;0.10;86.80;;;;;;9172971;19;20010;-67
2024/01/20 05:03:58;;;;;;;47.58;17.77;;;0.10;87.10;;;;;;9172658;19;20014;-67
2024/01/20 05:07:04;;;;;;;46.85;17.67;;;0.10;86.90;;;;;;9172221;19;20645;-69
2024/01/20 05:10:12;;;;;;;51.47;17.75;;;0.10;86.60;;;;;;9168685;19;20011;-68
2024/01/20 05:13:18;;;;;;;49.70;17.48;;;0.10;86.70;;;;;;9174091;19;20015;-69
2024/01/20 05:16:28;;;;;;;40.80;16.25;;;0.00;86.90;;;;;;9175202;19;20022;-73
2024/01/20 05:19:33;;;;;;;45.15;16.58;;;0.10;86.80;;;;;;9175314;19;20018;-67
2024/01/20 05:22:41;;;;;;;45.58;17.17;;;0.10;86.90;;;;;;9175143;19;20097;-71
2024/01/20 05:25:47;;;;;;;46.92;17.17;;;0.10;86.70;;;;;;9174324;19;20021;-70
2024/01/20 05:28:54;;;;;;;46.28;18.08;;;0.00;86.60;;;;;;9174089;19;20141;-68
2024/01/20 05:32:02;;;;;;;50.08;16.70;;;0.00;86.80;;;;;;9172856;19;20059;-67
2024/01/20 05:35:10;;;;;;;44.28;16.67;;;0.00;86.70;;;;;;9174829;19;20019;-68
2024/01/20 05:38:16;;;;;;;44.17;16.13;;;0.00;86.50;;;;;;9172240;19;20358;-67
2024/01/20 05:41:24;;;;;;;47.67;16.38;;;-0.10;86.70;;;;;;9173299;19;20022;-68
2024/01/20 05:44:29;;;;;;;50.30;17.33;;;-0.10;86.80;;;;;;9173306;19;20018;-66
2024/01/20 05:47:40;;;;;;;46.08;17.38;;;-0.10;87.10;;;;;;9172649;19;20037;-68
2024/01/20 05:50:45;;;;;;;51.85;15.50;;;-0.10;86.50;;;;;;9173819;19;20501;-68
2024/01/20 05:53:55;;;;;;;43.45;16.73;;;-0.10;86.90;;;;;;9171718;19;20022;-68
2024/01/20 05:57:01;;;;;;;45.97;16.17;;;-0.10;86.70;;;;;;9180189;19;20022;-67
2024/01/20 06:00:10;;;;;;;47.58;16.95;;;-0.10;86.90;;;;;;9180364;19;20031;-71
2024/01/20 06:03:19;;;;;;;48.05;16.33;;;-0.20;86.80;;;;;;9182965;19;20018;-70
2024/01/20 06:06:27;;;;;;;52.15;16.95;;;-0.10;87.10;;;;;;9181962;19;20255;-70
2024/01/20 06:09:33;;;;;;;44.78;16.25;;;-0.10;86.90;;;;;;9179050;19;20018;-70
2024/01/20 06:12:40;;;;;;;36.55;14.40;;;-0.20;86.90;;;;;;9180768;19;20018;-72
2024/01/20 06:15:46;;;;;;;52.17;16.55;;;-0.20;86.80;;;;;;9182021;19;20019;-70
2024/01/20 06:18:56;;;;;;;39.33;14.75;;;-0.20;87.10;;;;;;9180579;19;20346;-70
2024/01/20 06:22:02;;;;;;;41.28;16.70;;;-0.20;87.20;;;;;;9180985;19;20014;-71
2024/01/20 06:25:10;;;;;;;49.53;17.60;;;-0.20;87.30;;;;;;9180491;19;20022;-70
2024/01/20 06:28:17;;;;;;;44.05;17.30;;;-0.20;87.50;;;;;;9181681;19;20021;-70
2024/01/20 06:31:26;;;;;;;44.53;17.90;;;-0.20;87.40;;;;;;9180805;19;20112;-71
2024/01/20 06:34:34;;;;;;;45.58;16.25;;;-0.20;87.30;;;;;;9179449;19;20010;-71
2024/01/20 06:37:42;;;;;;;40.97;16.60;;;-0.20;87.50;;;;;;9182228;19;20022;-71
2024/01/20 06:40:48;;;;;;;40.47;15.80;;;-0.20;87.70;;;;;;9182412;19;20098;-70
2024/01/20 06:43:55;;;;;;;46.20;16.65;;;-0.20;87.40;;;;;;9181195;19;20010;-71
2024/01/20 06:47:01;;;;;;;43.30;16.05;;;-0.20;87.40;;;;;;9181505;19;20006;-70
2024/01/20 06:50:15;;;;;;;37.25;15.48;;;-0.10;87.70;;;;;;9180057;19;20165;-70
2024/01/20 06:53:20;;;;;;;47.40;17.30;;;-0.20;87.30;;;;;;9179951;19;20011;-72
2024/01/20 06:56:28;;;;;;;49.95;17.38;;;-0.10;87.80;;;;;;9176414;19;20007;-70
2024/01/20 06:59:34;;;;;;;53.15;17.90;;;-0.20;87.80;;;;;;9178817;19;20365;-70
2024/01/20 07:02:41;;;;;;;49.25;16.35;;;-0.10;87.50;;;;;;9180344;19;20014;-72
2024/01/20 07:05:49;;;;;;;42.80;16.52;;;-0.20;87.20;;;;;;9179588;19;20011;-70
2024/01/20 07:08:57;;;;;;;41.47;16.50;;;-0.10;87.70;;;;;;9181436;19;20511;-73
2024/01/20 07:12:03;;;;;;;51.78;16.83;;;-0.10;87.90;;;;;;9179717;19;20018;-69
2024/01/20 07:15:12;;;;;;;47.15;15.75;;;-0.20;87.60;;;;;;9178893;19;20025;-70
2024/01/20 07:18:18;;;;;;;37.05;14.85;;;-0.10;87.60;;;;;;9178237;19;20468;-68
2024/01/20 07:21:28;;;;;;;40.20;15.57;;;-0.10;87.50;;;;;;9180307;19;20377;-68
2024/01/20 07:24:33;;;;;;;48.30;15.43;;;0.00;88.20;;;;;;9178058;19;20014;-70
2024/01/20 07:27:41;;;;;;;42.53;16.65;;;0.00;87.50;;;;;;9179611;19;20483;-70
2024/01/20 07:30:47;;;;;;;43.58;16.77;;;0.00;88.20;;;;;;9180256;19;20010;-70
2024/01/20 07:33:54;;;;;;;42.90;16.77;;;0.00;88.00;;;;;;9179969;19;20025;-69
2024/01/20 07:37:03;;;;;;;41.50;15.50;;;0.00;87.30;;;;;;9179447;19;20025;-69
2024/01/20 07:40:12;;;;;;;46.63;16.73;;;0.10;88.00;;;;;;9179571;19;20082;-70
2024/01/20 07:43:17;;;;;;;46.65;15.40;;;0.10;87.40;;;;;;9180262;19;20033;-68
2024/01/20 07:46:25;;;;;;;44.50;17.58;;;0.20;87.70;;;;;;9178492;19;20015;-69
2024/01/20 07:49:30;;;;;;;45.15;16.60;;;0.10;87.40;;;;;;9179575;19;20046;-69
2024/01/20 07:52:41;;;;;;;40.75;15.02;;;0.10;87.60;;;;;;9177402;19;20020;-70
2024/01/20 07:55:46;;;;;;;42.35;16.23;;;0.20;87.70;;;;;;9176842;19;20585;-69
2024/01/20 07:58:54;;;;;;;44.65;15.85;;;0.20;87.60;;;;;;9175015;19;20003;-69
2024/01/20 08:01:59;;;;;;;38.70;16.40;;;0.20;87.70;;;;;;9178629;19;20015;-70
2024/01/20 08:05:08;;;;;;;36.47;15.45;;;0.20;87.50;;;;;;9179087;19;20033;-69
2024/01/20 08:08:16;;;;;;;43.05;15.52;;;0.20;87.50;;;;;;9176656;19;20007;-69
2024/01/20 08:11:23;;;;;;;41.83;15.68;;;0.30;87.60;;;;;;9173292;19;20022;-69
2024/01/20 08:14:29;;;;;;;44.38;16.88;;;0.30;87.70;;;;;;9177794;19;20011;-69
2024/01/20 08:17:36;;;;;;;43.95;15.05;;;0.30;87.50;;;;;;9177826;19;20030;-69
2024/01/20 08:20:43;;;;;;;38.38;15.90;;;0.30;87.80;;;;;;9177371;19;20428;-69
2024/01/20 08:23:54;;;;;;;42.60;16.35;;;0.30;88.20;;;;;;9178016;19;20019;-69
2024/01/20 08:27:00;;;;;;;45.50;15.07;;;0.40;87.80;;;;;;9178292;19;20011;-70
2024/01/20 08:30:10;;;;;;;44.70;16.50;;;0.30;87.40;;;;;;9174565;19;20014;-69
2024/01/20 08:33:15;;;;;;;34.90;14.50;;;0.40;87.50;;;;;;9177819;19;20022;-69
2024/01/20 08:36:29;;;;;;;38.75;14.38;;;0.40;87.60;;;;;;9175711;19;20639;-69
2024/01/20 08:39:40;;;;;;;35.85;14.68;;;0.40;87.80;;;;;;9176843;19;20021;-69
2024/01/20 08:42:48;;;;;;;42.35;15.98;;;0.40;87.90;;;;;;9176281;19;21046;-69
2024/01/20 08:45:53;;;;;;;44.30;15.00;;;0.50;87.70;;;;;;9172513;19;20018;-68
2024/01/20 08:49:01;;;;;;;46.83;15.43;;;0.50;87.80;;;;;;9169973;19;20006;-69
2024/01/20 08:52:07;;;;;;;39.42;15.18;;;0.60;87.90;;;;;;9173183;19;20473;-70
2024/01/20 08:55:17;;;;;;;43.25;14.75;;;0.60;87.90;;;;;;9173143;19;20018;-69
2024/01/20 08:58:23;;;;;;;35.72;14.27;;;0.70;88.20;;;;;;9175003;19;20010;-69
2024/01/20 09:01:30;;;;;;;43.55;14.93;;;0.70;87.70;;;;;;9171184;19;20361;-69
2024/01/20 09:04:36;;;;;;;35.28;15.02;;;0.80;88.00;;;;;;9170660;19;20019;-68
2024/01/20 09:07:44;;;;;;;37.67;13.70;;;0.80;88.00;;;;;;9166441;19;20046;-69
2024/01/20 09:10:52;;;;;;;39.63;14.02;;;0.80;88.10;;;;;;9169883;19;20031;-69
2024/01/20 09:14:00;;;;;;;37.35;14.45;;;0.90;88.20;;;;;;9168357;19;20022;-68
2024/01/20 09:17:06;;;;;;;46.97;15.77;;;1.00;88.50;;;;;;9168578;19;20025;-69
2024/01/20 09:20:13;;;;;;;48.03;15.52;;;1.00;88.40;;;;;;9171798;19;20828;-69
2024/01/20 09:23:19;;;;;;;33.95;14.52;;;1.10;88.10;;;;;;9172948;19;20017;-68
2024/01/20 09:26:30;;;;;;;42.35;14.52;;;1.10;88.50;;;;;;9173162;19;20026;-70
2024/01/20 09:29:36;;;;;;;38.90;14.48;;;1.20;88.40;;;;;;9169381;19;20778;-73
2024/01/20 09:32:46;;;;;;;35.75;14.77;;;1.20;88.30;;;;;;9172391;19;20115;-73
2024/01/20 09:35:52;;;;;;;40.47;14.05;;;1.30;88.40;;;;;;9168390;19;20015;-73
2024/01/20 09:38:59;;;;;;;38.35;13.50;;;1.30;89.10;;;;;;9171615;19;20022;-73
2024/01/20 09:42:10;;;;;;;42.37;14.77;;;1.30;88.40;;;;;;9028893;19;2802956;-73
2024/01/20 09:45:18;;;;;;;36.88;14.88;;;1.30;88.50;;;;;;9173350;19;20018;-73
2024/01/20 09:48:24;;;;;;;32.22;13.98;;;1.40;88.10;;;;;;9174551;19;20033;-73
2024/01/20 09:51:35;;;;;;;35.53;13.75;;;1.40;88.00;;;;;;9173849;19;20021;-73
2024/01/20 09:54:48;;;;;;;35.47;13.63;;;1.50;88.10;;;;;;9174353;19;20022;-73
2024/01/20 09:58:00;;;;;;;32.95;14.10;;;1.50;88.50;;;;;;9174106;19;20018;-72
2024/01/20 10:01:07;;;;;;;39.80;14.77;;;1.60;88.40;;;;;;9173321;19;20020;-73
2024/01/20 10:04:17;;;;;;;33.00;13.85;;;1.60;88.30;;;;;;9173901;19;20471;-73
2024/01/20 10:07:30;;;;;;;34.35;13.98;;;1.60;88.60;;;;;;9172726;19;20019;-73
2024/01/20 10:10:37;;;;;;;32.10;14.20;;;1.70;88.20;;;;;;9170446;19;20023;-73
2024/01/20 10:13:46;;;;;;;36.17;14.80;;;1.70;88.10;;;;;;9174825;19;20011;-73
2024/01/20 10:16:53;;;;;;;33.42;12.93;;;1.70;88.20;;;;;;9171179;19;20018;-73
2024/01/20 10:19:59;;;;;;;28.05;12.60;;;1.80;88.40;;;;;;9172106;19;20800;-73
2024/01/20 10:23:08;;;;;;;34.28;14.75;;;1.80;88.40;;;;;;9173403;19;20022;-73
2024/01/20 10:26:14;;;;;;;40.45;14.05;;;1.80;88.30;;;;;;9173028;19;20025;-74
2024/01/20 10:29:25;;;;;;;31.83;13.60;;;1.80;88.20;;;;;;9172779;19;20023;-73
2024/01/20 10:32:31;;;;;;;32.05;13.65;;;1.80;88.30;;;;;;9173831;19;20590;-73
2024/01/20 10:36:00;;;;;;;33.50;13.73;;;1.90;88.60;;;;;;9172278;19;20015;-74
2024/01/20 10:39:10;;;;;;;34.08;13.80;;;1.90;88.30;;;;;;9170751;19;20018;-73
2024/01/20 10:42:19;;;;;;;34.88;14.20;;;2.00;88.40;;;;;;9175973;19;20508;-73
2024/01/20 10:45:27;;;;;;;36.20;14.88;;;1.90;88.60;;;;;;9181522;19;20492;-74
2024/01/20 10:48:36;;;;;;;30.70;13.65;;;2.00;88.40;;;;;;9181564;19;20622;-75
2024/01/20 10:51:43;;;;;;;36.80;14.32;;;2.00;88.20;;;;;;9181739;19;20080;-74
2024/01/20 10:54:53;;;;;;;33.72;15.10;;;2.00;88.20;;;;;;9182000;19;20026;-74
2024/01/20 10:57:59;;;;;;;33.60;13.40;;;2.00;88.30;;;;;;9176247;19;20018;-74
2024/01/20 11:01:11;;;;;;;28.60;13.82;;;2.10;88.00;;;;;;9181558;19;20014;-73
2024/01/20 11:04:22;;;;;;;29.13;13.23;;;2.10;88.00;;;;;;9181748;19;20390;-74
2024/01/20 11:07:30;;;;;;;37.87;13.67;;;2.10;88.90;;;;;;9179385;19;20022;-73
2024/01/20 11:10:43;;;;;;;27.00;12.68;;;2.10;88.40;;;;;;9177025;19;20097;-72
2024/01/20 11:13:50;;;;;;;32.45;13.82;;;2.20;88.30;;;;;;9179851;19;20018;-73
2024/01/20 11:17:01;;;;;;;27.83;11.27;;;2.50;89.00;;;;;;9179514;19;20021;-74
2024/01/20 11:20:09;;;;;;;30.80;13.75;;;2.20;88.70;;;;;;9180148;19;20299;-74
2024/01/20 11:23:15;;;;;;;33.65;13.18;;;2.30;88.30;;;;;;9178131;19;20044;-73
2024/01/20 11:26:22;;;;;;;30.27;13.50;;;2.40;88.30;;;;;;9180544;19;20022;-72
2024/01/20 11:29:30;;;;;;;35.47;13.25;;;2.30;88.40;;;;;;9179455;19;20014;-72
2024/01/20 11:32:40;;;;;;;28.42;12.57;;;2.30;88.40;;;;;;9180084;19;20018;-74
2024/01/20 11:35:46;;;;;;;33.80;13.20;;;2.30;88.80;;;;;;9178497;19;20052;-72
2024/01/20 11:38:58;;;;;;;26.55;12.18;;;2.30;88.50;;;;;;9179294;19;20010;-73
2024/01/20 11:42:07;;;;;;;37.83;12.10;;;2.30;88.10;;;;;;9178174;19;20357;-72
2024/01/20 11:45:16;;;;;;;28.58;12.50;;;2.40;88.80;;;;;;9179750;19;20022;-71
2024/01/20 11:48:25;;;;;;;29.88;12.68;;;2.40;88.50;;;;;;9179355;19;20018;-73
2024/01/20 11:51:33;;;;;;;34.33;13.77;;;2.40;88.10;;;;;;9177288;19;20021;-69
2024/01/20 11:54:38;;;;;;;28.05;13.02;;;2.40;88.50;;;;;;9174731;19;20048;-69
2024/01/20 11:57:46;;;;;;;29.52;12.98;;;2.50;89.40;;;;;;9175515;19;20025;-68
2024/01/20 12:00:53;;;;;;;32.05;13.38;;;2.50;88.20;;;;;;9177680;19;20061;-68
2024/01/20 12:04:04;;;;;;;39.28;13.75;;;2.30;88.40;;;;;;9178543;19;20890;-68
2024/01/20 12:07:09;;;;;;;35.35;13.75;;;2.50;88.30;;;;;;9176913;19;20015;-69
2024/01/20 12:10:18;;;;;;;30.83;13.95;;;2.40;88.40;;;;;;9174311;19;20473;-67
2024/01/20 12:13:25;;;;;;;32.25;13.32;;;2.50;88.10;;;;;;9175682;19;20011;-71
2024/01/20 12:16:33;;;;;;;26.92;12.85;;;2.50;88.80;;;;;;9177838;19;20015;-67
2024/01/20 12:19:43;;;;;;;33.13;13.05;;;2.60;88.70;;;;;;9176802;19;20105;-67
2024/01/20 12:22:50;;;;;;;29.48;13.55;;;2.60;88.60;;;;;;9178446;19;20085;-68
2024/01/20 12:25:56;;;;;;;34.22;13.18;;;2.60;88.80;;;;;;9177482;19;20026;-68
2024/01/20 12:29:05;;;;;;;33.05;13.15;;;2.60;88.60;;;;;;9177148;19;20358;-69
2024/01/20 12:32:11;;;;;;;33.13;12.98;;;2.70;88.60;;;;;;9175357;19;20085;-69
2024/01/20 12:35:22;;;;;;;29.90;12.35;;;2.70;88.70;;;;;;9177303;19;20015;-67
2024/01/20 12:38:27;;;;;;;30.15;11.82;;;2.70;88.70;;;;;;9175007;19;20025;-67
2024/01/20 12:41:35;;;;;;;33.65;13.27;;;2.70;88.10;;;;;;9174744;19;20030;-69
2024/01/20 12:44:40;;;;;;;30.90;12.65;;;2.80;88.90;;;;;;9176827;19;20025;-69
2024/01/20 12:47:49;;;;;;;38.15;14.32;;;2.80;89.00;;;;;;9169291;19;20014;-67
2024/01/20 12:50:57;;;;;;;30.27;13.43;;;2.80;88.20;;;;;;9173390;19;20070;-67
2024/01/20 12:54:06;;;;;;;28.38;12.80;;;2.90;88.10;;;;;;9174100;19;20025;-67
2024/01/20 12:57:12;;;;;;;29.20;12.70;;;2.90;88.30;;;;;;9170956;19;20090;-70
2024/01/20 13:00:20;;;;;;;32.42;12.93;;;2.90;88.30;;;;;;9174356;19;20021;-68
2024/01/20 13:03:26;;;;;;;33.40;13.30;;;2.90;88.00;;;;;;9173304;19;20022;-69
2024/01/20 13:06:36;;;;;;;28.58;12.93;;;3.00;88.20;;;;;;9170954;19;20022;-69
2024/01/20 13:09:42;;;;;;;32.38;12.55;;;2.90;88.50;;;;;;9168611;19;20022;-69
2024/01/20 13:12:50;;;;;;;29.08;12.48;;;3.00;88.10;;;;;;9175263;19;20018;-63
2024/01/20 13:15:55;;;;;;;33.53;12.27;;;3.00;88.10;;;;;;9172864;19;20026;-71
2024/01/20 13:19:04;;;;;;;31.63;13.18;;;3.00;88.20;;;;;;9161635;19;20049;-70
2024/01/20 13:22:13;;;;;;;29.38;12.13;;;3.00;88.10;;;;;;9157058;19;20040;-71
2024/01/20 13:25:23;;;;;;;25.70;11.32;;;3.00;88.10;;;;;;9160795;19;20769;-71
2024/01/20 13:28:33;;;;;;;27.40;12.15;;;3.50;88.40;;;;;;9169156;19;20206;-70
2024/01/20 13:31:41;;;;;;;29.42;11.93;;;3.10;88.30;;;;;;9174032;19;20018;-72
2024/01/20 13:34:47;;;;;;;27.75;12.25;;;3.00;87.90;;;;;;9173550;19;20010;-71
2024/01/20 13:37:58;;;;;;;33.47;12.82;;;3.10;88.20;;;;;;9171104;19;20014;-70
2024/01/20 13:41:06;;;;;;;29.17;12.95;;;3.10;87.90;;;;;;9174721;19;20030;-70
2024/01/20 13:44:14;;;;;;;28.08;12.27;;;3.00;87.60;;;;;;9174480;19;20021;-70
2024/01/20 13:47:19;;;;;;;29.75;14.38;;;3.00;87.90;;;;;;9172615;19;20014;-69
2024/01/20 13:50:27;;;;;;;32.47;13.63;;;3.10;88.10;;;;;;9174323;19;20811;-71
2024/01/20 13:53:35;;;;;;;37.90;13.48;;;3.00;87.70;;;;;;9173928;19;20025;-72
2024/01/20 13:56:43;;;;;;;34.22;14.40;;;3.00;87.80;;;;;;9173187;19;20903;-70
2024/01/20 13:59:48;;;;;;;27.75;12.77;;;3.10;87.70;;;;;;9169980;19;20019;-72
2024/01/20 14:02:56;;;;;;;35.03;13.57;;;3.00;87.70;;;;;;9173620;19;20021;-72
2024/01/20 14:06:02;;;;;;;36.70;13.18;;;3.00;87.90;;;;;;9173846;19;20010;-75
2024/01/20 14:09:15;;;;;;;36.50;13.43;;;2.90;87.60;;;;;;9169228;19;20025;-70
2024/01/20 14:12:20;;;;;;;30.52;13.13;;;2.90;87.90;;;;;;9174968;19;20492;-73
2024/01/20 14:15:28;;;;;;;28.60;12.50;;;2.90;87.40;;;;;;9175191;19;20030;-72
2024/01/20 14:18:34;;;;;;;34.30;13.43;;;2.80;87.40;;;;;;9180907;19;20019;-72
2024/01/20 14:21:43;;;;;;;32.65;12.23;;;2.80;87.50;;;;;;9183450;19;20026;-71
2024/01/20 14:24:51;;;;;;;31.70;12.48;;;2.80;87.20;;;;;;9181340;19;20098;-72
2024/01/20 14:28:00;;;;;;;29.73;12.10;;;2.70;87.10;;;;;;9179903;19;20011;-71
2024/01/20 14:31:07;;;;;;;31.48;11.98;;;2.70;87.10;;;;;;9183010;19;20106;-72
2024/01/20 14:34:18;;;;;;;27.42;11.10;;;2.60;86.80;;;;;;9180487;19;20029;-72
2024/01/20 14:37:24;;;;;;;31.90;12.35;;;2.60;86.80;;;;;;9181615;19;20015;-72
2024/01/20 14:40:35;;;;;;;28.73;11.82;;;2.50;87.00;;;;;;9181936;19;20042;-71
2024/01/20 14:43:40;;;;;;;30.73;13.23;;;2.50;86.90;;;;;;9180280;19;20354;-72
2024/01/20 14:46:49;;;;;;;30.50;12.35;;;2.50;87.10;;;;;;9182171;19;20018;-71
2024/01/20 14:49:55;;;;;;;27.33;11.38;;;2.50;87.00;;;;;;9179662;19;20014;-72
2024/01/20 14:53:04;;;;;;;29.30;11.65;;;2.40;87.10;;;;;;9180822;19;20006;-73
2024/01/20 14:56:12;;;;;;;27.85;10.93;;;2.40;87.00;;;;;;9181466;19;20085;-71
2024/01/20 14:59:20;;;;;;;26.65;11.18;;;2.40;87.10;;;;;;9178095;19;20370;-71
2024/01/20 15:02:26;;;;;;;24.88;11.70;;;2.30;87.10;;;;;;9179327;19;20011;-71
2024/01/20 15:05:33;;;;;;;25.10;11.30;;;2.30;86.80;;;;;;9180187;19;20605;-71
2024/01/20 15:08:39;;;;;;;24.67;12.43;;;2.30;87.20;;;;;;9177950;19;20022;-75
2024/01/20 15:11:49;;;;;;;30.02;12.02;;;2.20;86.90;;;;;;9174959;19;20062;-71
2024/01/20 15:14:55;;;;;;;28.00;11.45;;;2.30;87.30;;;;;;9180951;19;20012;-71
2024/01/20 15:18:03;;;;;;;28.52;12.02;;;2.20;87.00;;;;;;9179544;19;20026;-71
2024/01/20 15:21:09;;;;;;;26.90;11.90;;;2.20;87.00;;;;;;9178344;19;20464;-70
2024/01/20 15:24:17;;;;;;;26.35;11.27;;;2.20;87.30;;;;;;9179929;19;20022;-71
2024/01/20 15:27:25;;;;;;;22.88;11.00;;;2.20;87.10;;;;;;9180430;19;20515;-71
2024/01/20 15:30:32;;;;;;;26.58;11.65;;;2.10;87.70;;;;;;9178791;19;20014;-71
2024/01/20 15:33:38;;;;;;;24.05;10.88;;;2.10;87.00;;;;;;9177599;19;20112;-71
2024/01/20 15:36:46;;;;;;;27.50;11.68;;;2.10;87.00;;;;;;9179156;19;20023;-71
2024/01/20 15:39:52;;;;;;;24.83;11.55;;;2.00;87.00;;;;;;9177837;19;20022;-71
2024/01/20 15:43:02;;;;;;;26.70;10.68;;;2.00;86.80;;;;;;9177831;19;20461;-71
2024/01/20 15:46:08;;;;;;;27.60;11.02;;;1.90;86.70;;;;;;9177188;19;20015;-71
2024/01/20 15:49:17;;;;;;;28.15;11.45;;;1.90;86.50;;;;;;9179765;19;20017;-71
2024/01/20 15:52:22;;;;;;;25.83;11.48;;;1.90;86.70;;;;;;9179271;19;20048;-71
2024/01/20 15:55:30;;;;;;;26.17;11.38;;;2.00;87.00;;;;;;9177782;19;20058;-71
2024/01/20 15:58:38;;;;;;;25.42;11.30;;;1.90;87.20;;;;;;9178717;19;20022;-71
2024/01/20 16:01:46;;;;;;;27.95;12.35;;;1.80;87.20;;;;;;9179256;19;20018;-72